sensor_id;sensor_type;location;lat;lon;timestamp;pressure;altitude;pressure_sealevel;temperature;humidity
29549;BME280;16487;53.094;8.800;2023-05-07T00:00:19;100350.94;;;11.13;100.00
29549;BME280;16487;53.094;8.800;2023-05-07T00:02:46;100345.03;;;11.11;100.00
29549;BME280;16487;53.094;8.800;2023-05-07T00:05:14;100350.09;;;11.03;100.00
29549;BME280;16487;53.094;8.800;2023-05-07T00:07:42;100353.41;;;11.11;100.00
29549;BME280;16487;53.094;8.800;2023-05-07T00:10:11;100350.41;;;11.05;100.00
29549;BME280;16487;53.094;8.800;2023-05-07T00:12:40;100347.63;;;11.05;100.00
29549;BME280;16487;53.094;8.800;2023-05-07T00:15:08;100338.75;;;10.98;100.00
29549;BME280;16487;53.094;8.800;2023-05-07T00:17:36;100341.94;;;10.87;100.00
29549;BME280;16487;53.094;8.800;2023-05-07T00:20:04;100337.91;;;10.88;100.00
29549;BME280;16487;53.094;8.800;2023-05-07T00:22:32;100342.84;;;10.84;100.00
29549;BME280;16487;53.094;8.800;2023-05-07T00:24:59;100352.72;;;10.76;100.00
29549;BME280;16487;53.094;8.800;2023-05-07T00:27:28;100336.38;;;10.87;100.00
29549;BME280;16487;53.094;8.800;2023-05-07T00:29:55;100333.84;;;10.80;100.00
29549;BME280;16487;53.094;8.800;2023-05-07T00:32:23;100326.78;;;10.88;100.00
29549;BME280;16487;53.094;8.800;2023-05-07T00:34:50;100329.81;;;10.81;100.00
29549;BME280;16487;53.094;8.800;2023-05-07T00:37:17;100337.25;;;10.84;100.00
29549;BME280;16487;53.094;8.800;2023-05-07T00:39:45;100326.38;;;10.99;100.00
29549;BME280;16487;53.094;8.800;2023-05-07T00:42:12;100330.34;;;10.89;100.00
29549;BME280;16487;53.094;8.800;2023-05-07T00:44:41;100331.69;;;10.84;100.00
29549;BME280;16487;53.094;8.800;2023-05-07T00:47:09;100325.22;;;10.87;100.00
29549;BME280;16487;53.094;8.800;2023-05-07T00:49:38;100333.88;;;10.89;100.00
29549;BME280;16487;53.094;8.800;2023-05-07T00:52:07;100332.75;;;10.78;100.00
29549;BME280;16487;53.094;8.800;2023-05-07T00:54:36;100340.50;;;10.83;100.00
29549;BME280;16487;53.094;8.800;2023-05-07T00:57:04;100337.53;;;10.77;100.00
29549;BME280;16487;53.094;8.800;2023-05-07T00:59:32;100333.72;;;10.84;100.00
29549;BME280;16487;53.094;8.800;2023-05-07T01:02:01;100343.63;;;10.63;100.00
29549;BME280;16487;53.094;8.800;2023-05-07T01:04:28;100344.16;;;10.71;100.00
29549;BME280;16487;53.094;8.800;2023-05-07T01:06:57;100342.47;;;10.73;100.00
29549;BME280;16487;53.094;8.800;2023-05-07T01:09:26;100342.00;;;10.75;100.00
29549;BME280;16487;53.094;8.800;2023-05-07T01:11:56;100346.00;;;10.74;100.00
29549;BME280;16487;53.094;8.800;2023-05-07T01:14:24;100337.84;;;10.79;100.00
29549;BME280;16487;53.094;8.800;2023-05-07T01:16:52;100355.69;;;10.60;100.00
29549;BME280;16487;53.094;8.800;2023-05-07T01:19:23;100354.47;;;10.61;100.00
29549;BME280;16487;53.094;8.800;2023-05-07T01:21:51;100342.59;;;10.70;100.00
29549;BME280;16487;53.094;8.800;2023-05-07T01:24:25;100357.41;;;10.67;100.00
29549;BME280;16487;53.094;8.800;2023-05-07T01:26:53;100344.91;;;10.50;100.00
29549;BME280;16487;53.094;8.800;2023-05-07T01:29:20;100344.28;;;10.46;100.00
29549;BME280;16487;53.094;8.800;2023-05-07T01:31:49;100345.28;;;10.39;100.00
29549;BME280;16487;53.094;8.800;2023-05-07T01:34:18;100341.78;;;10.48;100.00
29549;BME280;16487;53.094;8.800;2023-05-07T01:36:48;100335.84;;;10.36;100.00
29549;BME280;16487;53.094;8.800;2023-05-07T01:39:16;100329.81;;;10.38;100.00
29549;BME280;16487;53.094;8.800;2023-05-07T01:41:46;100322.13;;;10.42;100.00
29549;BME280;16487;53.094;8.800;2023-05-07T01:44:14;100329.09;;;10.25;100.00
29549;BME280;16487;53.094;8.800;2023-05-07T01:46:42;100333.22;;;10.20;100.00
29549;BME280;16487;53.094;8.800;2023-05-07T01:49:10;100328.63;;;10.26;100.00
29549;BME280;16487;53.094;8.800;2023-05-07T01:51:37;100327.53;;;10.24;100.00
29549;BME280;16487;53.094;8.800;2023-05-07T01:54:05;100321.03;;;10.27;100.00
29549;BME280;16487;53.094;8.800;2023-05-07T01:56:32;100317.94;;;10.25;100.00
29549;BME280;16487;53.094;8.800;2023-05-07T01:59:01;100316.16;;;10.18;100.00
29549;BME280;16487;53.094;8.800;2023-05-07T02:01:28;100312.88;;;10.11;100.00
29549;BME280;16487;53.094;8.800;2023-05-07T02:03:56;100316.75;;;10.13;100.00
29549;BME280;16487;53.094;8.800;2023-05-07T02:06:26;100302.69;;;10.17;100.00
29549;BME280;16487;53.094;8.800;2023-05-07T02:08:58;100315.19;;;10.12;100.00
29549;BME280;16487;53.094;8.800;2023-05-07T02:11:26;100309.50;;;10.16;100.00
29549;BME280;16487;53.094;8.800;2023-05-07T02:13:53;100316.28;;;10.15;100.00
29549;BME280;16487;53.094;8.800;2023-05-07T02:16:22;100320.19;;;10.05;100.00
29549;BME280;16487;53.094;8.800;2023-05-07T02:18:51;100317.41;;;10.05;100.00
29549;BME280;16487;53.094;8.800;2023-05-07T02:21:18;100324.78;;;10.11;100.00
29549;BME280;16487;53.094;8.800;2023-05-07T02:23:45;100321.69;;;10.09;100.00
29549;BME280;16487;53.094;8.800;2023-05-07T02:26:13;100329.59;;;10.11;100.00
29549;BME280;16487;53.094;8.800;2023-05-07T02:28:40;100336.50;;;9.94;100.00
29549;BME280;16487;53.094;8.800;2023-05-07T02:31:07;100325.09;;;10.01;100.00
29549;BME280;16487;53.094;8.800;2023-05-07T02:33:36;100326.69;;;10.02;100.00
29549;BME280;16487;53.094;8.800;2023-05-07T02:36:07;100320.53;;;10.07;100.00
29549;BME280;16487;53.094;8.800;2023-05-07T02:38:38;100320.19;;;10.05;100.00
29549;BME280;16487;53.094;8.800;2023-05-07T02:41:06;100317.66;;;10.10;100.00
29549;BME280;16487;53.094;8.800;2023-05-07T02:43:36;100324.00;;;10.11;100.00
29549;BME280;16487;53.094;8.800;2023-05-07T02:46:04;100325.22;;;10.10;100.00
29549;BME280;16487;53.094;8.800;2023-05-07T02:48:34;100332.81;;;10.09;100.00
29549;BME280;16487;53.094;8.800;2023-05-07T02:51:04;100339.34;;;10.03;100.00
29549;BME280;16487;53.094;8.800;2023-05-07T02:53:32;100347.84;;;10.12;100.00
29549;BME280;16487;53.094;8.800;2023-05-07T02:56:00;100346.84;;;10.06;100.00
29549;BME280;16487;53.094;8.800;2023-05-07T02:58:28;100353.16;;;10.06;100.00
29549;BME280;16487;53.094;8.800;2023-05-07T03:00:56;100353.72;;;10.01;100.00
29549;BME280;16487;53.094;8.800;2023-05-07T03:03:38;100343.16;;;9.96;100.00
29549;BME280;16487;53.094;8.800;2023-05-07T03:06:07;100335.03;;;10.02;100.00
29549;BME280;16487;53.094;8.800;2023-05-07T03:08:34;100345.16;;;9.96;100.00
29549;BME280;16487;53.094;8.800;2023-05-07T03:11:02;100348.63;;;10.00;100.00
29549;BME280;16487;53.094;8.800;2023-05-07T03:13:29;100348.84;;;9.93;100.00
29549;BME280;16487;53.094;8.800;2023-05-07T03:15:57;100346.06;;;9.93;100.00
29549;BME280;16487;53.094;8.800;2023-05-07T03:18:24;100345.38;;;9.89;100.00
29549;BME280;16487;53.094;8.800;2023-05-07T03:20:52;100338.03;;;9.95;100.00
29549;BME280;16487;53.094;8.800;2023-05-07T03:23:20;100345.94;;;9.96;100.00
29549;BME280;16487;53.094;8.800;2023-05-07T03:25:50;100338.63;;;9.90;100.00
29549;BME280;16487;53.094;8.800;2023-05-07T03:28:18;100339.28;;;9.94;100.00
29549;BME280;16487;53.094;8.800;2023-05-07T03:30:51;100337.03;;;10.01;100.00
29549;BME280;16487;53.094;8.800;2023-05-07T03:33:19;100333.16;;;9.99;100.00
29549;BME280;16487;53.094;8.800;2023-05-07T03:35:47;100334.13;;;9.92;100.00
29549;BME280;16487;53.094;8.800;2023-05-07T03:38:21;100327.59;;;9.86;100.00
29549;BME280;16487;53.094;8.800;2023-05-07T03:40:48;100328.69;;;9.89;100.00
29549;BME280;16487;53.094;8.800;2023-05-07T03:43:16;100333.38;;;9.92;100.00
29549;BME280;16487;53.094;8.800;2023-05-07T03:45:48;100323.78;;;9.93;100.00
29549;BME280;16487;53.094;8.800;2023-05-07T03:48:21;100329.38;;;9.93;100.00
29549;BME280;16487;53.094;8.800;2023-05-07T03:50:49;100327.81;;;9.92;100.00
29549;BME280;16487;53.094;8.800;2023-05-07T03:53:18;100328.47;;;9.96;100.00
29549;BME280;16487;53.094;8.800;2023-05-07T03:55:47;100329.13;;;10.00;100.00
29549;BME280;16487;53.094;8.800;2023-05-07T03:58:14;100324.78;;;9.99;100.00
29549;BME280;16487;53.094;8.800;2023-05-07T04:00:42;100326.28;;;9.78;100.00
29549;BME280;16487;53.094;8.800;2023-05-07T04:03:19;100331.16;;;9.87;100.00
29549;BME280;16487;53.094;8.800;2023-05-07T04:05:48;100334.94;;;9.93;100.00
29549;BME280;16487;53.094;8.800;2023-05-07T04:08:15;100333.38;;;9.92;100.00
29549;BME280;16487;53.094;8.800;2023-05-07T04:10:48;100331.16;;;9.87;100.00
29549;BME280;16487;53.094;8.800;2023-05-07T04:13:15;100339.53;;;9.87;100.00
29549;BME280;16487;53.094;8.800;2023-05-07T04:15:43;100349.50;;;9.97;100.00
29549;BME280;16487;53.094;8.800;2023-05-07T04:18:13;100338.84;;;9.95;100.00
29549;BME280;16487;53.094;8.800;2023-05-07T04:20:43;100353.19;;;9.94;100.00
29549;BME280;16487;53.094;8.800;2023-05-07T04:23:13;100343.63;;;9.95;100.00
29549;BME280;16487;53.094;8.800;2023-05-07T04:25:41;100350.72;;;9.96;100.00
29549;BME280;16487;53.094;8.800;2023-05-07T04:28:18;100364.00;;;9.92;100.00
29549;BME280;16487;53.094;8.800;2023-05-07T04:30:46;100366.56;;;9.99;100.00
29549;BME280;16487;53.094;8.800;2023-05-07T04:33:14;100371.22;;;10.02;100.00
29549;BME280;16487;53.094;8.800;2023-05-07T04:35:42;100368.09;;;10.00;100.00
29549;BME280;16487;53.094;8.800;2023-05-07T04:38:09;100366.31;;;10.06;100.00
29549;BME280;16487;53.094;8.800;2023-05-07T04:40:37;100354.84;;;10.04;100.00
29549;BME280;16487;53.094;8.800;2023-05-07T04:43:04;100360.66;;;9.97;100.00
29549;BME280;16487;53.094;8.800;2023-05-07T04:45:40;100358.78;;;9.94;100.00
29549;BME280;16487;53.094;8.800;2023-05-07T04:48:08;100359.75;;;10.00;100.00
29549;BME280;16487;53.094;8.800;2023-05-07T04:50:38;100362.41;;;10.03;100.00
29549;BME280;16487;53.094;8.800;2023-05-07T04:53:06;100365.19;;;10.03;100.00
29549;BME280;16487;53.094;8.800;2023-05-07T04:55:34;100363.97;;;10.04;100.00
29549;BME280;16487;53.094;8.800;2023-05-07T04:58:02;100367.78;;;10.10;100.00
29549;BME280;16487;53.094;8.800;2023-05-07T05:00:32;100377.88;;;10.17;100.00
29549;BME280;16487;53.094;8.800;2023-05-07T05:03:03;100383.22;;;10.24;100.00
29549;BME280;16487;53.094;8.800;2023-05-07T05:05:31;100390.25;;;10.16;100.00
29549;BME280;16487;53.094;8.800;2023-05-07T05:07:59;100393.69;;;10.20;100.00
29549;BME280;16487;53.094;8.800;2023-05-07T05:10:27;100387.88;;;10.27;100.00
29549;BME280;16487;53.094;8.800;2023-05-07T05:12:55;100389.56;;;10.24;100.00
29549;BME280;16487;53.094;8.800;2023-05-07T05:15:24;100394.25;;;10.27;100.00
29549;BME280;16487;53.094;8.800;2023-05-07T05:17:51;100395.38;;;10.30;100.00
29549;BME280;16487;53.094;8.800;2023-05-07T05:20:20;100400.84;;;10.21;100.00
29549;BME280;16487;53.094;8.800;2023-05-07T05:22:48;100411.97;;;10.21;100.00
29549;BME280;16487;53.094;8.800;2023-05-07T05:25:16;100405.63;;;10.20;100.00
29549;BME280;16487;53.094;8.800;2023-05-07T05:27:43;100412.75;;;10.21;100.00
29549;BME280;16487;53.094;8.800;2023-05-07T05:30:12;100406.97;;;10.16;100.00
29549;BME280;16487;53.094;8.800;2023-05-07T05:32:41;100415.22;;;10.19;100.00
29549;BME280;16487;53.094;8.800;2023-05-07T05:35:08;100418.34;;;10.21;100.00
29549;BME280;16487;53.094;8.800;2023-05-07T05:37:37;100416.63;;;10.36;100.00
29549;BME280;16487;53.094;8.800;2023-05-07T05:40:07;100415.38;;;10.37;100.00
29549;BME280;16487;53.094;8.800;2023-05-07T05:42:35;100427.63;;;10.40;100.00
29549;BME280;16487;53.094;8.800;2023-05-07T05:45:03;100437.63;;;10.50;100.00
29549;BME280;16487;53.094;8.800;2023-05-07T05:47:32;100438.09;;;10.49;100.00
29549;BME280;16487;53.094;8.800;2023-05-07T05:50:00;100450.72;;;10.41;100.00
29549;BME280;16487;53.094;8.800;2023-05-07T05:52:28;100466.63;;;10.53;100.00
29549;BME280;16487;53.094;8.800;2023-05-07T05:54:58;100464.13;;;10.55;100.00
29549;BME280;16487;53.094;8.800;2023-05-07T05:57:26;100476.06;;;10.55;100.00
29549;BME280;16487;53.094;8.800;2023-05-07T05:59:55;100476.75;;;10.59;100.00
29549;BME280;16487;53.094;8.800;2023-05-07T06:02:24;100493.47;;;10.59;100.00
29549;BME280;16487;53.094;8.800;2023-05-07T06:04:52;100492.88;;;10.64;100.00
29549;BME280;16487;53.094;8.800;2023-05-07T06:07:25;100500.69;;;10.57;100.00
29549;BME280;16487;53.094;8.800;2023-05-07T06:09:52;100502.69;;;10.69;100.00
29549;BME280;16487;53.094;8.800;2023-05-07T06:12:22;100511.13;;;10.78;100.00
29549;BME280;16487;53.094;8.800;2023-05-07T06:14:49;100517.72;;;10.71;100.00
29549;BME280;16487;53.094;8.800;2023-05-07T06:17:17;100529.63;;;10.84;100.00
29549;BME280;16487;53.094;8.800;2023-05-07T06:19:49;100532.34;;;10.75;100.00
29549;BME280;16487;53.094;8.800;2023-05-07T06:22:19;100539.38;;;10.55;100.00
29549;BME280;16487;53.094;8.800;2023-05-07T06:24:48;100541.94;;;10.62;100.00
29549;BME280;16487;53.094;8.800;2023-05-07T06:27:15;100547.38;;;10.65;100.00
29549;BME280;16487;53.094;8.800;2023-05-07T06:29:45;100553.31;;;10.55;100.00
29549;BME280;16487;53.094;8.800;2023-05-07T06:32:15;100547.72;;;10.67;100.00
29549;BME280;16487;53.094;8.800;2023-05-07T06:34:44;100562.22;;;10.62;100.00
29549;BME280;16487;53.094;8.800;2023-05-07T06:37:12;100567.91;;;10.71;100.00
29549;BME280;16487;53.094;8.800;2023-05-07T06:39:49;100571.50;;;10.59;100.00
29549;BME280;16487;53.094;8.800;2023-05-07T06:42:17;100576.84;;;10.66;100.00
29549;BME280;16487;53.094;8.800;2023-05-07T06:44:48;100577.91;;;10.81;100.00
29549;BME280;16487;53.094;8.800;2023-05-07T06:47:17;100570.56;;;10.87;100.00
29549;BME280;16487;53.094;8.800;2023-05-07T06:49:49;100585.13;;;11.04;100.00
29549;BME280;16487;53.094;8.800;2023-05-07T06:52:19;100604.84;;;11.09;100.00
29549;BME280;16487;53.094;8.800;2023-05-07T06:54:48;100612.78;;;10.98;100.00
29549;BME280;16487;53.094;8.800;2023-05-07T06:57:17;100617.16;;;10.99;100.00
29549;BME280;16487;53.094;8.800;2023-05-07T06:59:45;100631.66;;;10.94;100.00
29549;BME280;16487;53.094;8.800;2023-05-07T07:02:14;100634.31;;;10.98;100.00
29549;BME280;16487;53.094;8.800;2023-05-07T07:04:44;100642.09;;;11.15;100.00
29549;BME280;16487;53.094;8.800;2023-05-07T07:07:12;100656.91;;;11.37;100.00
29549;BME280;16487;53.094;8.800;2023-05-07T07:09:41;100683.56;;;11.38;100.00
29549;BME280;16487;53.094;8.800;2023-05-07T07:12:09;100710.09;;;11.55;100.00
29549;BME280;16487;53.094;8.800;2023-05-07T07:14:39;100741.34;;;11.50;100.00
29549;BME280;16487;53.094;8.800;2023-05-07T07:17:07;100766.38;;;11.67;100.00
29549;BME280;16487;53.094;8.800;2023-05-07T07:19:35;100785.22;;;11.75;100.00
29549;BME280;16487;53.094;8.800;2023-05-07T07:22:03;100809.91;;;11.64;100.00
29549;BME280;16487;53.094;8.800;2023-05-07T07:24:32;100826.53;;;11.55;100.00
29549;BME280;16487;53.094;8.800;2023-05-07T07:27:03;100827.09;;;11.63;100.00
29549;BME280;16487;53.094;8.800;2023-05-07T07:29:33;100835.03;;;11.64;100.00
29549;BME280;16487;53.094;8.800;2023-05-07T07:32:00;100878.13;;;11.63;100.00
29549;BME280;16487;53.094;8.800;2023-05-07T07:34:28;100846.09;;;11.68;100.00
29549;BME280;16487;53.094;8.800;2023-05-07T07:36:57;100853.22;;;11.56;100.00
29549;BME280;16487;53.094;8.800;2023-05-07T07:39:24;100868.09;;;11.66;100.00
29549;BME280;16487;53.094;8.800;2023-05-07T07:41:55;100896.53;;;11.61;100.00
29549;BME280;16487;53.094;8.800;2023-05-07T07:44:22;100889.22;;;11.67;100.00
29549;BME280;16487;53.094;8.800;2023-05-07T07:46:56;100902.72;;;11.81;100.00
29549;BME280;16487;53.094;8.800;2023-05-07T07:49:25;100914.47;;;11.76;100.00
29549;BME280;16487;53.094;8.800;2023-05-07T07:51:54;100919.13;;;11.79;100.00
29549;BME280;16487;53.094;8.800;2023-05-07T07:54:22;100930.72;;;11.90;100.00
29549;BME280;16487;53.094;8.800;2023-05-07T07:56:50;100945.50;;;12.03;100.00
29549;BME280;16487;53.094;8.800;2023-05-07T07:59:17;100956.44;;;11.85;100.00
29549;BME280;16487;53.094;8.800;2023-05-07T08:01:46;100979.44;;;12.14;100.00
29549;BME280;16487;53.094;8.800;2023-05-07T08:04:13;100981.03;;;12.15;100.00
29549;BME280;16487;53.094;8.800;2023-05-07T08:06:42;100998.66;;;12.37;100.00
29549;BME280;16487;53.094;8.800;2023-05-07T08:09:10;101041.78;;;12.61;100.00
29549;BME280;16487;53.094;8.800;2023-05-07T08:11:41;101081.72;;;12.49;100.00
29549;BME280;16487;53.094;8.800;2023-05-07T08:14:09;101098.50;;;12.74;100.00
29549;BME280;16487;53.094;8.800;2023-05-07T08:16:37;101117.72;;;12.72;100.00
29549;BME280;16487;53.094;8.800;2023-05-07T08:19:05;101144.44;;;12.73;100.00
29549;BME280;16487;53.094;8.800;2023-05-07T08:21:32;101158.22;;;12.80;100.00
29549;BME280;16487;53.094;8.800;2023-05-07T08:24:01;101174.91;;;12.58;100.00
29549;BME280;16487;53.094;8.800;2023-05-07T08:26:29;101170.50;;;12.57;100.00
29549;BME280;16487;53.094;8.800;2023-05-07T08:28:58;101165.59;;;12.61;100.00
29549;BME280;16487;53.094;8.800;2023-05-07T08:31:25;101179.78;;;12.80;100.00
29549;BME280;16487;53.094;8.800;2023-05-07T08:33:52;101172.00;;;12.62;100.00
29549;BME280;16487;53.094;8.800;2023-05-07T08:36:20;101182.72;;;13.01;100.00
29549;BME280;16487;53.094;8.800;2023-05-07T08:38:47;101188.56;;;13.07;100.00
29549;BME280;16487;53.094;8.800;2023-05-07T08:41:15;101210.03;;;13.10;100.00
29549;BME280;16487;53.094;8.800;2023-05-07T08:43:49;101209.38;;;12.93;100.00
29549;BME280;16487;53.094;8.800;2023-05-07T08:46:20;101204.75;;;12.61;100.00
29549;BME280;16487;53.094;8.800;2023-05-07T08:48:49;101183.25;;;12.46;100.00
29549;BME280;16487;53.094;8.800;2023-05-07T08:51:19;101166.03;;;12.85;100.00
29549;BME280;16487;53.094;8.800;2023-05-07T08:53:47;101184.28;;;13.02;100.00
29549;BME280;16487;53.094;8.800;2023-05-07T08:56:20;101220.78;;;13.11;100.00
29549;BME280;16487;53.094;8.800;2023-05-07T08:58:50;101260.31;;;13.26;100.00
29549;BME280;16487;53.094;8.800;2023-05-07T09:01:19;101298.03;;;13.21;100.00
29549;BME280;16487;53.094;8.800;2023-05-07T09:03:51;101314.94;;;13.43;100.00
29549;BME280;16487;53.094;8.800;2023-05-07T09:06:21;101312.38;;;13.48;100.00
29549;BME280;16487;53.094;8.800;2023-05-07T09:08:49;101334.44;;;13.59;100.00
29549;BME280;16487;53.094;8.800;2023-05-07T09:11:20;101339.13;;;13.74;100.00
29549;BME280;16487;53.094;8.800;2023-05-07T09:13:48;101366.56;;;13.79;100.00
29549;BME280;16487;53.094;8.800;2023-05-07T09:16:15;101361.25;;;13.94;100.00
29549;BME280;16487;53.094;8.800;2023-05-07T09:18:49;101383.56;;;13.98;100.00
29549;BME280;16487;53.094;8.800;2023-05-07T09:21:18;101374.63;;;13.90;100.00
29549;BME280;16487;53.094;8.800;2023-05-07T09:23:50;101385.56;;;14.10;100.00
29549;BME280;16487;53.094;8.800;2023-05-07T09:26:19;101408.41;;;14.21;100.00
29549;BME280;16487;53.094;8.800;2023-05-07T09:28:48;101452.16;;;14.31;100.00
29549;BME280;16487;53.094;8.800;2023-05-07T09:31:18;101481.47;;;14.64;100.00
29549;BME280;16487;53.094;8.800;2023-05-07T09:33:49;101498.47;;;14.23;100.00
29549;BME280;16487;53.094;8.800;2023-05-07T09:36:18;101489.38;;;14.19;100.00
29549;BME280;16487;53.094;8.800;2023-05-07T09:38:45;101485.38;;;14.20;100.00
29549;BME280;16487;53.094;8.800;2023-05-07T09:41:13;101494.69;;;14.76;100.00
29549;BME280;16487;53.094;8.800;2023-05-07T09:43:53;101505.09;;;14.54;100.00
29549;BME280;16487;53.094;8.800;2023-05-07T09:46:26;101517.75;;;14.46;100.00
29549;BME280;16487;53.094;8.800;2023-05-07T09:48:57;101511.91;;;14.53;100.00
29549;BME280;16487;53.094;8.800;2023-05-07T09:51:29;101487.28;;;14.82;100.00
29549;BME280;16487;53.094;8.800;2023-05-07T09:53:58;101534.53;;;14.83;100.00
29549;BME280;16487;53.094;8.800;2023-05-07T09:56:27;101551.41;;;15.05;100.00
29549;BME280;16487;53.094;8.800;2023-05-07T09:58:59;101554.59;;;14.94;100.00
29549;BME280;16487;53.094;8.800;2023-05-07T10:01:31;101546.75;;;14.89;100.00
29549;BME280;16487;53.094;8.800;2023-05-07T10:04:01;101552.75;;;14.66;100.00
29549;BME280;16487;53.094;8.800;2023-05-07T10:06:30;101548.75;;;14.30;100.00
29549;BME280;16487;53.094;8.800;2023-05-07T10:08:59;101530.50;;;14.72;100.00
29549;BME280;16487;53.094;8.800;2023-05-07T10:11:27;101554.41;;;14.89;100.00
29549;BME280;16487;53.094;8.800;2023-05-07T10:13:55;101567.91;;;15.03;100.00
29549;BME280;16487;53.094;8.800;2023-05-07T10:16:23;101588.47;;;15.00;100.00
29549;BME280;16487;53.094;8.800;2023-05-07T10:18:51;101593.19;;;15.03;100.00
29549;BME280;16487;53.094;8.800;2023-05-07T10:21:24;101560.41;;;15.00;100.00
29549;BME280;16487;53.094;8.800;2023-05-07T10:24:02;101588.09;;;15.23;100.00
29549;BME280;16487;53.094;8.800;2023-05-07T10:26:33;101592.50;;;15.67;100.00
29549;BME280;16487;53.094;8.800;2023-05-07T10:29:07;101636.19;;;15.59;100.00
29549;BME280;16487;53.094;8.800;2023-05-07T10:31:50;101630.41;;;15.84;100.00
29549;BME280;16487;53.094;8.800;2023-05-07T10:34:23;101633.16;;;15.54;100.00
29549;BME280;16487;53.094;8.800;2023-05-07T10:36:54;101613.38;;;15.23;100.00
29549;BME280;16487;53.094;8.800;2023-05-07T10:39:22;101655.06;;;15.59;100.00
29549;BME280;16487;53.094;8.800;2023-05-07T10:41:50;101642.47;;;15.85;100.00
29549;BME280;16487;53.094;8.800;2023-05-07T10:44:27;101680.56;;;15.64;100.00
29549;BME280;16487;53.094;8.800;2023-05-07T10:47:07;101686.66;;;15.84;100.00
29549;BME280;16487;53.094;8.800;2023-05-07T10:49:35;101684.00;;;16.02;100.00
29549;BME280;16487;53.094;8.800;2023-05-07T10:52:16;101726.03;;;16.28;100.00
29549;BME280;16487;53.094;8.800;2023-05-07T10:55:20;101755.47;;;17.18;100.00
29549;BME280;16487;53.094;8.800;2023-05-07T10:58:25;101851.56;;;18.00;100.00
29549;BME280;16487;53.094;8.800;2023-05-07T11:01:50;102002.09;;;19.45;100.00
29549;BME280;16487;53.094;8.800;2023-05-07T11:04:22;102041.06;;;18.87;100.00
29549;BME280;16487;53.094;8.800;2023-05-07T11:07:24;102052.47;;;18.25;100.00
29549;BME280;16487;53.094;8.800;2023-05-07T11:10:02;102042.22;;;18.41;100.00
29549;BME280;16487;53.094;8.800;2023-05-07T11:12:55;102045.91;;;17.98;100.00
29549;BME280;16487;53.094;8.800;2023-05-07T11:15:40;102017.00;;;17.54;100.00
29549;BME280;16487;53.094;8.800;2023-05-07T11:18:46;102018.88;;;17.36;100.00
29549;BME280;16487;53.094;8.800;2023-05-07T11:21:31;102013.72;;;17.34;100.00
29549;BME280;16487;53.094;8.800;2023-05-07T11:24:08;102018.56;;;17.34;100.00
29549;BME280;16487;53.094;8.800;2023-05-07T11:26:49;102021.66;;;18.09;100.00
29549;BME280;16487;53.094;8.800;2023-05-07T11:29:20;102043.22;;;17.64;100.00
29549;BME280;16487;53.094;8.800;2023-05-07T11:31:53;102047.09;;;18.18;100.00
29549;BME280;16487;53.094;8.800;2023-05-07T11:34:25;102036.84;;;17.72;100.00
29549;BME280;16487;53.094;8.800;2023-05-07T11:36:55;102035.75;;;18.00;100.00
29549;BME280;16487;53.094;8.800;2023-05-07T11:39:37;102032.22;;;17.87;100.00
29549;BME280;16487;53.094;8.800;2023-05-07T11:42:04;102041.53;;;17.97;100.00
29549;BME280;16487;53.094;8.800;2023-05-07T11:44:42;102058.31;;;18.00;100.00
29549;BME280;16487;53.094;8.800;2023-05-07T11:47:10;102054.72;;;17.69;100.00
29549;BME280;16487;53.094;8.800;2023-05-07T11:49:37;102033.06;;;17.45;100.00
29549;BME280;16487;53.094;8.800;2023-05-07T11:52:05;102000.81;;;17.24;100.00
29549;BME280;16487;53.094;8.800;2023-05-07T11:54:36;102019.00;;;16.89;100.00
29549;BME280;16487;53.094;8.800;2023-05-07T11:57:04;102017.00;;;16.77;100.00
29549;BME280;16487;53.094;8.800;2023-05-07T11:59:38;102027.84;;;17.00;100.00
29549;BME280;16487;53.094;8.800;2023-05-07T12:02:06;102005.44;;;17.18;100.00
29549;BME280;16487;53.094;8.800;2023-05-07T12:04:33;102002.25;;;16.73;100.00
29549;BME280;16487;53.094;8.800;2023-05-07T12:07:01;102012.09;;;16.56;100.00
29549;BME280;16487;53.094;8.800;2023-05-07T12:09:28;102004.66;;;16.62;100.00
29549;BME280;16487;53.094;8.800;2023-05-07T12:11:57;101989.72;;;16.27;100.00
29549;BME280;16487;53.094;8.800;2023-05-07T12:14:27;101994.38;;;16.68;100.00
29549;BME280;16487;53.094;8.800;2023-05-07T12:16:54;102011.03;;;16.75;100.00
29549;BME280;16487;53.094;8.800;2023-05-07T12:19:22;102008.72;;;16.95;100.00
29549;BME280;16487;53.094;8.800;2023-05-07T12:21:50;102015.19;;;16.83;100.00
29549;BME280;16487;53.094;8.800;2023-05-07T12:24:17;102015.19;;;16.83;100.00
29549;BME280;16487;53.094;8.800;2023-05-07T12:26:48;102017.81;;;16.99;100.00
29549;BME280;16487;53.094;8.800;2023-05-07T12:29:17;102025.16;;;17.18;100.00
29549;BME280;16487;53.094;8.800;2023-05-07T12:31:49;102032.84;;;17.39;100.00
29549;BME280;16487;53.094;8.800;2023-05-07T12:34:17;102035.88;;;17.66;100.00
29549;BME280;16487;53.094;8.800;2023-05-07T12:36:44;102044.72;;;17.34;100.00
29549;BME280;16487;53.094;8.800;2023-05-07T12:39:11;102032.63;;;17.77;100.00
29549;BME280;16487;53.094;8.800;2023-05-07T12:41:54;102050.84;;;17.54;100.00
29549;BME280;16487;53.094;8.800;2023-05-07T12:44:25;102052.34;;;17.25;100.00
29549;BME280;16487;53.094;8.800;2023-05-07T12:46:55;102045.78;;;17.49;100.00
29549;BME280;16487;53.094;8.800;2023-05-07T12:49:23;102055.31;;;17.64;100.00
29549;BME280;16487;53.094;8.800;2023-05-07T12:51:51;102060.97;;;17.73;100.00
29549;BME280;16487;53.094;8.800;2023-05-07T12:54:29;102065.28;;;17.22;100.00